createdAt,value
2022-08-03T00:01:46.690Z,20.60
2022-08-03T00:04:14.691Z,20.50
2022-08-03T00:06:42.690Z,20.50
2022-08-03T00:09:11.214Z,20.50
2022-08-03T00:11:39.797Z,20.40
2022-08-03T00:14:08.494Z,20.30
2022-08-03T00:16:37.067Z,20.30
2022-08-03T00:19:06.448Z,20.40
2022-08-03T00:21:34.574Z,20.30
2022-08-03T00:24:02.692Z,20.30
2022-08-03T00:26:31.661Z,20.30
2022-08-03T00:28:59.654Z,20.20
2022-08-03T00:31:44.941Z,20.20
2022-08-03T00:34:17.017Z,20.20
2022-08-03T00:36:57.970Z,20.20
2022-08-03T00:39:25.932Z,20.10
2022-08-03T00:41:53.890Z,20.10
2022-08-03T00:44:22.882Z,20.10
2022-08-03T00:46:50.845Z,20.00
2022-08-03T00:49:20.280Z,20.00
2022-08-03T00:51:48.962Z,20.00
2022-08-03T00:54:17.303Z,20.00
2022-08-03T00:56:59.595Z,19.90
2022-08-03T00:59:29.150Z,19.90
2022-08-03T01:01:58.524Z,19.80
2022-08-03T01:04:28.925Z,19.80
2022-08-03T01:07:10.943Z,19.80
2022-08-03T01:09:47.333Z,19.70
2022-08-03T01:12:23.598Z,19.70
2022-08-03T01:14:56.875Z,19.60
2022-08-03T01:17:31.146Z,19.60
2022-08-03T01:20:06.601Z,19.60
2022-08-03T01:23:06.168Z,19.60
2022-08-03T01:25:45.183Z,19.50
2022-08-03T01:28:28.155Z,19.50
2022-08-03T01:31:02.280Z,19.50
2022-08-03T01:33:37.124Z,19.50
2022-08-03T01:36:08.574Z,19.50
2022-08-03T01:38:43.022Z,19.40
2022-08-03T01:41:14.812Z,19.40
2022-08-03T01:44:26.485Z,19.40
2022-08-03T01:46:40.337Z,19.40
2022-08-03T01:49:17.301Z,19.40
2022-08-03T01:52:00.842Z,19.30
2022-08-03T01:54:44.105Z,19.40
2022-08-03T01:57:13.101Z,19.20
2022-08-03T01:59:43.021Z,19.20
2022-08-03T02:02:33.062Z,19.20
2022-08-03T02:05:04.279Z,19.20
2022-08-03T02:07:35.888Z,19.10
2022-08-03T02:10:06.224Z,19.10
2022-08-03T02:12:35.777Z,19.10
2022-08-03T02:15:04.879Z,19.10
2022-08-03T02:17:38.560Z,19.10
2022-08-03T02:20:09.611Z,19.00
2022-08-03T02:22:41.368Z,19.00
2022-08-03T02:25:10.985Z,19.00
2022-08-03T02:27:44.166Z,19.00
2022-08-03T02:30:14.380Z,18.90
2022-08-03T02:32:49.659Z,18.90
2022-08-03T02:35:20.396Z,18.90
2022-08-03T02:37:52.835Z,18.90
2022-08-03T02:40:23.944Z,18.90
2022-08-03T02:42:57.250Z,18.90
2022-08-03T02:45:27.506Z,18.80
2022-08-03T02:48:02.095Z,18.80
2022-08-03T02:50:31.946Z,18.80
2022-08-03T02:53:00.842Z,18.70
2022-08-03T02:55:30.002Z,18.70
2022-08-03T02:58:01.614Z,18.70
2022-08-03T03:00:31.722Z,18.70
2022-08-03T03:03:03.678Z,18.60
2022-08-03T03:05:52.666Z,18.60
2022-08-03T03:08:25.744Z,18.60
2022-08-03T03:10:55.853Z,18.60
2022-08-03T03:13:24.551Z,18.60
2022-08-03T03:15:53.976Z,18.50
2022-08-03T03:18:25.102Z,18.50
2022-08-03T03:20:55.040Z,18.60
2022-08-03T03:23:25.471Z,18.50
2022-08-03T03:25:55.914Z,18.50
2022-08-03T03:28:24.417Z,18.50
2022-08-03T03:30:53.606Z,18.40
2022-08-03T03:33:23.828Z,18.40
2022-08-03T03:35:52.787Z,18.40
2022-08-03T03:38:21.708Z,18.30
2022-08-03T03:40:50.218Z,18.30
2022-08-03T03:43:18.891Z,18.30
2022-08-03T03:45:48.982Z,18.30
2022-08-03T03:48:17.366Z,18.20
2022-08-03T03:50:47.397Z,18.20
2022-08-03T03:53:15.982Z,18.20
2022-08-03T03:56:01.601Z,18.20
2022-08-03T03:58:32.787Z,18.20
2022-08-03T04:01:01.261Z,18.10
2022-08-03T04:03:29.327Z,18.10
2022-08-03T04:06:16.442Z,18.20
2022-08-03T04:09:16.192Z,18.10
2022-08-03T04:11:52.076Z,18.10
2022-08-03T04:14:23.751Z,18.10
2022-08-03T04:16:56.427Z,18.10
2022-08-03T04:19:31.795Z,18.10
2022-08-03T04:22:05.312Z,18.10
2022-08-03T04:24:36.271Z,18.20
2022-08-03T04:27:08.770Z,18.20
2022-08-03T04:29:48.251Z,18.30
2022-08-03T04:32:18.906Z,18.30
2022-08-03T04:34:47.793Z,18.30
2022-08-03T04:37:25.692Z,18.40
2022-08-03T04:39:57.662Z,18.40
2022-08-03T04:42:26.964Z,18.50
2022-08-03T04:45:01.144Z,18.50
2022-08-03T04:47:31.074Z,18.50
2022-08-03T04:49:59.212Z,18.60
2022-08-03T04:52:28.621Z,18.60
2022-08-03T04:54:56.767Z,18.70
2022-08-03T04:57:25.050Z,18.70
2022-08-03T05:00:01.489Z,18.80
2022-08-03T05:02:32.190Z,18.90
2022-08-03T05:05:00.641Z,18.90
2022-08-03T05:07:35.661Z,18.90
2022-08-03T05:10:04.522Z,18.90
2022-08-03T05:12:43.754Z,19.00
2022-08-03T05:15:12.253Z,19.10
2022-08-03T05:17:40.314Z,19.10
2022-08-03T05:20:09.428Z,19.20
2022-08-03T05:22:38.878Z,19.20
2022-08-03T05:25:07.320Z,19.30
2022-08-03T05:27:35.383Z,19.30
2022-08-03T05:30:29.652Z,19.40
2022-08-03T05:32:57.004Z,19.40
2022-08-03T05:36:00.872Z,19.50
2022-08-03T05:38:20.883Z,19.60
2022-08-03T05:40:57.156Z,19.70
2022-08-03T05:43:26.107Z,19.80
2022-08-03T05:46:01.765Z,19.80
2022-08-03T05:48:40.825Z,19.90
2022-08-03T05:51:11.397Z,20.00
2022-08-03T05:53:41.816Z,20.10
2022-08-03T05:56:15.373Z,20.20
2022-08-03T05:58:45.508Z,20.30
2022-08-03T06:01:13.670Z,20.40
2022-08-03T06:03:41.708Z,20.50
2022-08-03T06:06:10.060Z,20.60
2022-08-03T06:08:38.449Z,20.80
2022-08-03T06:11:08.452Z,21.10
2022-08-03T06:13:36.993Z,21.30
2022-08-03T06:16:05.361Z,21.60
2022-08-03T06:18:33.365Z,21.90
2022-08-03T06:21:14.352Z,22.00
2022-08-03T06:23:54.076Z,22.10
2022-08-03T06:26:26.208Z,22.30
2022-08-03T06:28:54.919Z,22.60
2022-08-03T06:31:32.227Z,22.80
2022-08-03T06:34:33.070Z,23.00
2022-08-03T06:36:50.998Z,23.20
2022-08-03T06:39:23.350Z,23.50
2022-08-03T06:41:54.189Z,23.70
2022-08-03T06:44:22.224Z,23.90
2022-08-03T06:46:51.146Z,24.10
2022-08-03T06:49:19.833Z,24.20
2022-08-03T06:52:05.826Z,24.30
2022-08-03T06:54:37.564Z,24.40
2022-08-03T06:57:08.320Z,24.30
2022-08-03T07:00:09.050Z,24.30
2022-08-03T07:02:24.646Z,24.40
2022-08-03T07:04:56.568Z,24.60
2022-08-03T07:07:24.705Z,24.70
2022-08-03T07:09:56.667Z,24.80
2022-08-03T07:12:28.529Z,24.70
2022-08-03T07:15:02.876Z,24.80
2022-08-03T07:17:33.435Z,24.80
2022-08-03T07:20:04.634Z,24.90
2022-08-03T07:22:32.703Z,25.00
2022-08-03T07:25:00.984Z,25.20
2022-08-03T07:27:31.389Z,25.40
2022-08-03T07:30:00.190Z,25.60
2022-08-03T07:32:31.472Z,25.70
2022-08-03T07:35:01.247Z,25.80
2022-08-03T07:37:30.759Z,25.90
2022-08-03T07:39:59.508Z,25.80
2022-08-03T07:42:27.685Z,25.70
2022-08-03T07:44:58.375Z,25.80
2022-08-03T07:47:35.116Z,26.00
2022-08-03T07:50:05.677Z,26.10
2022-08-03T07:52:50.811Z,26.10
2022-08-03T07:55:19.936Z,26.10
2022-08-03T07:57:48.148Z,26.30
2022-08-03T08:00:20.168Z,26.30
2022-08-03T08:02:48.354Z,26.20
2022-08-03T08:05:16.476Z,26.30
2022-08-03T08:07:44.757Z,26.30
2022-08-03T08:10:20.480Z,26.40
2022-08-03T08:12:48.948Z,26.40
2022-08-03T08:15:18.704Z,26.60
2022-08-03T08:17:48.805Z,26.70
2022-08-03T08:20:27.070Z,26.70
2022-08-03T08:22:58.295Z,26.60
2022-08-03T08:25:30.423Z,26.60
2022-08-03T08:28:30.572Z,26.60
2022-08-03T08:30:51.546Z,26.80
2022-08-03T08:33:23.085Z,26.90
2022-08-03T08:35:53.476Z,27.00
2022-08-03T08:38:21.628Z,27.10
2022-08-03T08:40:50.814Z,27.10
2022-08-03T08:43:19.102Z,27.20
2022-08-03T08:45:50.587Z,27.30
2022-08-03T08:48:24.460Z,27.40
2022-08-03T08:50:54.928Z,27.30
2022-08-03T08:53:27.221Z,27.20
2022-08-03T08:56:00.717Z,27.20
2022-08-03T08:58:31.711Z,27.10
2022-08-03T09:01:00.345Z,27.20
2022-08-03T09:03:31.054Z,27.40
2022-08-03T09:06:02.416Z,27.70
2022-08-03T09:08:31.318Z,27.80
2022-08-03T09:10:59.856Z,28.00
2022-08-03T09:13:29.264Z,28.10
2022-08-03T09:16:22.903Z,28.20
2022-08-03T09:18:56.150Z,28.30
2022-08-03T12:23:37.575Z,31.20
2022-08-03T12:32:19.069Z,31.50
2022-08-03T12:35:17.465Z,31.60
2022-08-03T12:38:00.267Z,31.50
2022-08-03T12:41:02.966Z,31.50
2022-08-03T12:53:22.145Z,31.80
2022-08-03T12:56:32.101Z,31.70
2022-08-03T12:59:53.347Z,31.80
2022-08-03T13:05:45.823Z,32.20
2022-08-03T13:08:38.507Z,32.20
2022-08-03T13:11:57.478Z,32.10
2022-08-03T13:14:53.333Z,32.10
2022-08-03T13:17:50.692Z,32.20
2022-08-03T13:20:19.336Z,32.20
2022-08-03T13:22:48.874Z,32.10
2022-08-03T13:25:18.897Z,32.10
2022-08-03T13:28:03.389Z,32.00
2022-08-03T13:30:38.990Z,31.90
2022-08-03T13:33:08.001Z,31.90
2022-08-03T13:35:44.419Z,31.90
2022-08-03T13:38:35.039Z,32.00
2022-08-03T13:41:05.227Z,31.90
2022-08-03T13:43:33.775Z,31.90
2022-08-03T13:46:01.811Z,32.00
2022-08-03T13:48:36.813Z,32.10
2022-08-03T13:51:22.140Z,32.00
2022-08-03T13:53:51.332Z,32.00
2022-08-03T13:56:21.221Z,31.90
2022-08-03T13:58:50.334Z,32.00
2022-08-03T14:01:34.324Z,32.10
2022-08-03T14:04:15.863Z,32.30
2022-08-03T14:06:50.311Z,32.30
2022-08-03T14:09:27.226Z,32.30
2022-08-03T14:12:07.205Z,32.50
2022-08-03T14:14:38.133Z,32.40
2022-08-03T14:17:19.269Z,32.20
2022-08-03T14:19:55.724Z,32.10
2022-08-03T14:22:27.919Z,32.10
2022-08-03T14:25:14.343Z,32.20
2022-08-03T14:27:51.571Z,32.40
2022-08-03T14:30:26.237Z,32.50
2022-08-03T14:33:00.845Z,32.70
2022-08-03T14:35:29.928Z,32.80
2022-08-03T14:38:17.454Z,32.50
2022-08-03T14:40:54.640Z,32.50
2022-08-03T14:43:25.697Z,32.70
2022-08-03T14:46:03.111Z,32.80
2022-08-03T14:50:32.311Z,32.80
2022-08-03T14:51:30.526Z,32.90
2022-08-03T14:57:04.150Z,33.10
2022-08-03T15:00:06.708Z,33.20
2022-08-03T15:03:04.557Z,33.20
2022-08-03T15:05:34.820Z,33.10
2022-08-03T15:08:09.188Z,33.10
2022-08-03T15:10:44.196Z,33.10
2022-08-03T15:13:17.260Z,33.10
2022-08-03T15:15:54.859Z,33.10
2022-08-03T15:18:24.732Z,33.10
2022-08-03T15:21:06.973Z,32.90
2022-08-03T15:23:50.522Z,32.90
2022-08-03T15:26:32.914Z,32.90
2022-08-03T15:29:04.060Z,32.90
2022-08-03T15:31:41.162Z,32.90
2022-08-03T15:34:15.874Z,32.80
2022-08-03T15:36:45.227Z,32.60
2022-08-03T15:39:14.992Z,32.60
2022-08-03T15:41:43.339Z,32.60
2022-08-03T15:44:11.385Z,32.50
2022-08-03T15:46:40.983Z,32.50
2022-08-03T15:49:09.039Z,32.40
2022-08-03T15:51:38.222Z,32.30
2022-08-03T15:54:09.469Z,32.30
2022-08-03T15:56:37.717Z,32.30
2022-08-03T15:59:13.500Z,32.20
2022-08-03T16:01:43.815Z,32.20
2022-08-03T16:04:12.624Z,32.40
2022-08-03T16:06:40.820Z,32.40
2022-08-03T16:09:23.386Z,32.30
2022-08-03T16:11:58.390Z,32.10
2022-08-03T16:14:34.805Z,31.90
2022-08-03T16:17:07.374Z,31.80
2022-08-03T16:19:35.666Z,31.80
2022-08-03T16:22:03.803Z,31.70
2022-08-03T16:24:32.079Z,31.60
2022-08-03T16:27:00.472Z,31.40
2022-08-03T16:29:29.514Z,31.40
2022-08-03T16:31:57.513Z,31.40
2022-08-03T16:34:27.135Z,31.30
2022-08-03T16:36:55.791Z,31.20
2022-08-03T16:39:23.911Z,31.20
2022-08-03T16:42:00.427Z,31.30
2022-08-03T16:44:30.835Z,31.30
2022-08-03T16:46:59.346Z,31.30
2022-08-03T16:49:52.956Z,31.20
2022-08-03T16:52:18.049Z,31.10
2022-08-03T16:54:50.565Z,31.20
2022-08-03T16:57:56.537Z,31.20
2022-08-03T17:00:11.078Z,31.30
2022-08-03T17:02:48.281Z,31.20
2022-08-03T17:05:18.586Z,31.10
2022-08-03T17:07:50.639Z,31.20
2022-08-03T17:10:27.212Z,31.20
2022-08-03T17:12:55.902Z,31.20
2022-08-03T17:15:57.256Z,31.20
2022-08-03T17:18:18.603Z,31.20
2022-08-03T17:20:53.407Z,31.10
2022-08-03T17:23:35.883Z,31.10
2022-08-03T17:26:20.810Z,31.10
2022-08-03T17:28:57.447Z,31.00
2022-08-03T17:31:32.033Z,31.00
2022-08-03T17:34:04.546Z,31.00
2022-08-03T17:37:02.812Z,31.00
2022-08-03T17:39:48.475Z,31.00
2022-08-03T17:42:30.829Z,30.90
2022-08-03T17:45:19.032Z,30.90
2022-08-03T17:47:57.802Z,30.90
2022-08-03T17:53:31.982Z,30.70
2022-08-03T17:56:38.518Z,30.70
2022-08-03T17:59:50.729Z,30.60
2022-08-03T18:02:47.531Z,30.40
2022-08-03T18:05:21.801Z,29.90
2022-08-03T18:08:00.793Z,29.70
2022-08-03T18:10:49.684Z,29.40
2022-08-03T18:13:24.332Z,29.30
2022-08-03T18:15:57.176Z,28.90
2022-08-03T18:18:36.435Z,28.70
2022-08-03T18:21:09.201Z,28.60
2022-08-03T18:23:50.348Z,28.40
2022-08-03T18:26:28.883Z,28.10
2022-08-03T18:28:58.699Z,27.70
2022-08-03T18:31:59.409Z,27.50
2022-08-03T18:34:33.255Z,27.50
2022-08-03T18:37:07.747Z,27.40
2022-08-03T18:39:49.687Z,27.00
2022-08-03T18:42:20.455Z,26.80
2022-08-03T18:44:56.366Z,26.80
2022-08-03T18:47:50.547Z,26.70
2022-08-03T18:50:25.957Z,26.70
2022-08-03T18:53:16.689Z,26.40
2022-08-03T18:58:52.222Z,26.20
2022-08-03T19:04:27.630Z,25.90
2022-08-03T19:07:11.178Z,25.70
2022-08-03T19:09:47.986Z,25.70
2022-08-03T19:12:28.083Z,25.70
2022-08-03T19:15:04.979Z,25.50
2022-08-03T19:17:36.092Z,25.50
2022-08-03T19:20:08.995Z,25.30
2022-08-03T19:22:39.737Z,25.30
2022-08-03T19:25:14.043Z,25.30
2022-08-03T19:27:46.175Z,25.20
2022-08-03T19:30:32.844Z,25.10
2022-08-03T19:33:02.074Z,25.00
2022-08-03T19:35:49.722Z,24.80
2022-08-03T19:38:27.502Z,24.80
2022-08-03T19:41:00.057Z,24.60
2022-08-03T19:43:49.457Z,24.60
2022-08-03T19:46:30.146Z,24.60
2022-08-03T19:49:04.253Z,24.50
2022-08-03T19:51:58.981Z,24.50
2022-08-03T19:54:29.842Z,24.40
2022-08-03T19:57:02.486Z,24.40
2022-08-03T19:59:42.019Z,24.30
2022-08-03T20:02:26.064Z,24.20
2022-08-03T20:04:57.346Z,24.10
2022-08-03T20:07:26.052Z,24.00
2022-08-03T20:09:56.559Z,24.00
2022-08-03T20:12:27.412Z,23.90
2022-08-03T20:14:56.792Z,23.90
2022-08-03T20:17:56.290Z,23.90
2022-08-03T20:20:15.473Z,23.90
2022-08-03T20:22:48.168Z,23.90
2022-08-03T20:25:20.814Z,23.90
2022-08-03T20:28:07.719Z,23.90
2022-08-03T20:30:44.564Z,23.90
2022-08-03T20:33:18.369Z,23.80
2022-08-03T20:35:49.517Z,23.70
2022-08-03T20:38:19.024Z,23.60
2022-08-03T20:40:48.313Z,23.50
2022-08-03T20:43:16.494Z,23.50
2022-08-03T20:46:00.648Z,23.40
2022-08-03T20:48:38.458Z,23.30
2022-08-03T20:51:20.214Z,23.30
2022-08-03T20:54:00.177Z,23.30
2022-08-03T20:56:33.900Z,23.20
2022-08-03T20:59:03.892Z,23.20
2022-08-03T21:01:36.184Z,23.10
2022-08-03T21:04:09.562Z,23.10
2022-08-03T21:06:42.918Z,23.00
2022-08-03T21:09:19.226Z,23.00
2022-08-03T21:11:51.447Z,23.00
2022-08-03T21:13:04.654Z,30.80
2022-08-03T21:13:10.906Z,26.30
2022-08-03T21:13:11.100Z,26.00
2022-08-03T21:14:21.357Z,22.90
2022-08-03T21:16:52.540Z,22.90
2022-08-03T21:19:23.265Z,22.90
2022-08-03T21:21:53.380Z,22.80
2022-08-03T21:24:25.733Z,22.80
2022-08-03T21:26:55.587Z,22.80
2022-08-03T21:29:24.725Z,22.70
2022-08-03T21:31:53.173Z,22.70
2022-08-03T21:34:23.222Z,22.60
2022-08-03T21:36:51.253Z,22.60
2022-08-03T21:39:19.460Z,22.50
2022-08-03T21:41:47.632Z,22.50
2022-08-03T21:44:18.315Z,22.40
2022-08-03T21:46:57.990Z,22.40
2022-08-03T21:50:07.749Z,22.40
2022-08-03T21:52:21.287Z,22.30
2022-08-03T21:54:51.116Z,22.20
2022-08-03T21:57:21.091Z,22.20
2022-08-03T21:59:54.655Z,22.20
2022-08-03T22:02:27.642Z,22.20
2022-08-03T22:04:57.946Z,22.20
2022-08-03T22:07:26.795Z,22.10
2022-08-03T22:09:56.054Z,22.10
2022-08-03T22:12:25.699Z,22.10
2022-08-03T22:15:00.907Z,22.10
2022-08-03T22:17:55.810Z,22.10
2022-08-03T22:20:22.384Z,22.10
2022-08-03T22:22:55.842Z,22.00
2022-08-03T22:25:28.692Z,21.90
2022-08-03T22:27:57.866Z,21.80
2022-08-03T22:30:26.360Z,21.90
2022-08-03T22:32:56.101Z,21.80
2022-08-03T22:35:27.557Z,21.80
2022-08-03T22:37:58.088Z,21.80
2022-08-03T22:40:27.747Z,21.70
2022-08-03T22:42:55.891Z,21.70
2022-08-03T22:46:06.227Z,21.60
2022-08-03T22:48:12.955Z,21.50
2022-08-03T22:50:45.337Z,21.50
2022-08-03T22:53:17.813Z,21.50
2022-08-03T22:55:46.475Z,21.40
2022-08-03T22:58:16.557Z,21.30
2022-08-03T23:00:49.849Z,21.30
2022-08-03T23:03:24.494Z,21.30
2022-08-03T23:06:01.185Z,21.20
2022-08-03T23:08:34.501Z,21.20
2022-08-03T23:11:08.570Z,21.20
2022-08-03T23:13:40.470Z,21.20
2022-08-03T23:16:10.572Z,21.20
2022-08-03T23:18:40.641Z,21.10
2022-08-03T23:21:11.014Z,21.10
2022-08-03T23:23:44.180Z,21.00
2022-08-03T23:26:14.368Z,21.00
2022-08-03T23:28:46.322Z,21.00
2022-08-03T23:31:15.721Z,21.00
2022-08-03T23:33:45.355Z,21.00
2022-08-03T23:36:30.342Z,21.00
2022-08-03T23:39:00.164Z,21.00
2022-08-03T23:41:29.708Z,20.90
2022-08-03T23:43:59.994Z,20.90
2022-08-03T23:46:30.670Z,20.90
2022-08-03T23:48:59.761Z,20.90
2022-08-03T23:51:40.162Z,20.90
2022-08-03T23:54:17.987Z,20.90
2022-08-03T23:56:53.901Z,20.90
2022-08-03T23:59:27.755Z,20.90
